createdAt,value
2018-09-19T00:00:17.746Z,21.5
2018-09-19T00:01:19.104Z,21.4
2018-09-19T00:02:20.462Z,21.4
2018-09-19T00:03:21.820Z,21.4
2018-09-19T00:04:23.188Z,21.3
2018-09-19T00:05:24.551Z,21.4
2018-09-19T00:06:25.922Z,21.4
2018-09-19T00:07:27.292Z,21.3
2018-09-19T00:08:28.643Z,21.3
2018-09-19T00:09:30.014Z,21.2
2018-09-19T00:10:31.373Z,21.2
2018-09-19T00:11:32.739Z,21.1
2018-09-19T00:12:34.117Z,21.1
2018-09-19T00:13:35.463Z,21.1
2018-09-19T00:14:36.833Z,21.0
2018-09-19T00:15:38.192Z,21.0
2018-09-19T00:16:39.554Z,21.0
2018-09-19T00:17:40.919Z,21.0
2018-09-19T00:18:42.275Z,20.9
2018-09-19T00:19:43.653Z,20.9
2018-09-19T00:20:44.997Z,20.8
2018-09-19T00:21:46.499Z,20.8
2018-09-19T00:22:47.732Z,20.9
2018-09-19T00:23:49.094Z,20.7
2018-09-19T00:24:50.459Z,20.7
2018-09-19T00:25:51.813Z,20.6
2018-09-19T00:26:53.182Z,20.5
2018-09-19T00:27:54.548Z,20.6
2018-09-19T00:28:55.970Z,20.6
2018-09-19T00:29:57.269Z,20.5
2018-09-19T00:30:58.636Z,20.5
2018-09-19T00:32:00.002Z,20.5
2018-09-19T00:33:01.366Z,20.5
2018-09-19T00:34:02.736Z,20.6
2018-09-19T00:35:04.098Z,20.6
2018-09-19T00:36:05.456Z,20.5
2018-09-19T00:37:06.822Z,20.5
2018-09-19T00:38:08.198Z,20.4
2018-09-19T00:39:09.557Z,20.5
2018-09-19T00:40:10.914Z,20.4
2018-09-19T00:41:12.277Z,20.3
2018-09-19T00:42:13.644Z,20.4
2018-09-19T00:43:15.007Z,20.4
2018-09-19T00:44:16.371Z,20.5
2018-09-19T00:45:17.745Z,20.5
2018-09-19T00:46:19.104Z,20.5
2018-09-19T00:47:20.472Z,20.5
2018-09-19T00:48:21.839Z,20.5
2018-09-19T00:49:23.210Z,20.4
2018-09-19T00:50:24.569Z,20.4
2018-09-19T00:51:25.918Z,20.5
2018-09-19T00:52:27.290Z,20.4
2018-09-19T00:53:28.648Z,20.3
2018-09-19T00:54:30.008Z,20.3
2018-09-19T00:55:31.373Z,20.3
2018-09-19T00:56:32.734Z,20.3
2018-09-19T00:57:34.103Z,20.2
2018-09-19T00:58:35.467Z,20.3
2018-09-19T00:59:36.838Z,20.3
2018-09-19T01:00:38.197Z,20.2
2018-09-19T01:01:39.556Z,20.3
2018-09-19T01:02:40.916Z,20.3
2018-09-19T01:03:42.277Z,20.3
2018-09-19T01:04:43.628Z,20.3
2018-09-19T01:05:45.002Z,20.2
2018-09-19T01:06:46.361Z,20.2
2018-09-19T01:07:47.726Z,20.2
2018-09-19T01:08:49.092Z,20.2
2018-09-19T01:09:50.466Z,20.2
2018-09-19T01:10:51.837Z,20.2
2018-09-19T01:11:53.177Z,20.2
2018-09-19T01:12:54.534Z,20.1
2018-09-19T01:13:55.916Z,20.2
2018-09-19T01:14:57.282Z,20.1
2018-09-19T01:15:58.643Z,20.1
2018-09-19T01:17:00.068Z,20.2
2018-09-19T01:18:01.393Z,20.0
2018-09-19T01:19:02.745Z,20.0
2018-09-19T01:20:04.106Z,20.0
2018-09-19T01:21:05.471Z,19.9
2018-09-19T01:22:06.837Z,20.0
2018-09-19T01:23:08.197Z,19.9
2018-09-19T01:24:09.563Z,20.0
2018-09-19T01:25:10.936Z,19.9
2018-09-19T01:26:12.287Z,19.9
2018-09-19T01:27:13.644Z,19.8
2018-09-19T01:28:15.018Z,19.8
2018-09-19T01:29:16.373Z,19.9
2018-09-19T01:30:17.734Z,19.8
2018-09-19T01:31:19.106Z,19.8
2018-09-19T01:32:20.458Z,19.9
2018-09-19T01:33:21.813Z,19.8
2018-09-19T01:34:23.179Z,19.8
2018-09-19T01:35:24.543Z,19.8
2018-09-19T01:36:25.897Z,19.7
2018-09-19T01:37:27.263Z,19.8
2018-09-19T01:38:28.620Z,19.7
2018-09-19T01:39:29.994Z,19.7
2018-09-19T01:40:31.349Z,19.7
2018-09-19T01:41:32.712Z,19.7
2018-09-19T01:42:34.062Z,19.6
2018-09-19T01:43:35.433Z,19.6
2018-09-19T01:44:36.794Z,19.6
2018-09-19T01:45:38.152Z,19.5
2018-09-19T01:46:39.522Z,19.5
2018-09-19T01:47:40.881Z,19.5
2018-09-19T01:48:42.250Z,19.5
2018-09-19T01:49:43.602Z,19.5
2018-09-19T01:50:44.961Z,19.4
2018-09-19T01:51:46.346Z,19.4
2018-09-19T01:52:47.698Z,19.5
2018-09-19T01:53:49.062Z,19.4
2018-09-19T01:54:50.418Z,19.4
2018-09-19T01:55:51.784Z,19.4
2018-09-19T01:56:53.148Z,19.4
2018-09-19T01:57:54.519Z,19.4
2018-09-19T01:58:55.872Z,19.4
2018-09-19T01:59:57.238Z,19.3
2018-09-19T02:00:58.607Z,19.3
2018-09-19T02:01:59.982Z,19.3
2018-09-19T02:03:01.330Z,19.3
2018-09-19T02:04:02.700Z,19.3
2018-09-19T02:05:04.057Z,19.2
2018-09-19T02:06:05.425Z,19.2
2018-09-19T02:07:06.923Z,19.1
2018-09-19T02:08:08.288Z,19.1
2018-09-19T02:09:09.638Z,19.1
2018-09-19T02:10:11.003Z,19.2
2018-09-19T02:11:12.376Z,19.0
2018-09-19T02:12:13.721Z,19.0
2018-09-19T02:13:15.096Z,19.1
2018-09-19T02:14:16.465Z,19.0
2018-09-19T02:15:17.821Z,19.0
2018-09-19T02:16:19.174Z,19.0
2018-09-19T02:17:20.535Z,19.0
2018-09-19T02:18:21.892Z,19.0
2018-09-19T02:19:23.249Z,18.8
2018-09-19T02:20:24.605Z,18.9
2018-09-19T02:21:25.969Z,18.9
2018-09-19T02:22:27.344Z,18.9
2018-09-19T02:23:28.704Z,18.9
2018-09-19T02:24:30.059Z,18.9
2018-09-19T02:25:31.420Z,18.9
2018-09-19T02:26:32.781Z,18.9
2018-09-19T02:27:34.143Z,18.8
2018-09-19T02:28:35.547Z,18.8
2018-09-19T02:29:36.825Z,18.8
2018-09-19T02:30:38.194Z,18.7
2018-09-19T02:31:39.557Z,18.7
2018-09-19T02:32:40.913Z,18.7
2018-09-19T02:33:42.282Z,18.7
2018-09-19T02:34:43.646Z,18.6
2018-09-19T02:35:45.007Z,18.7
2018-09-19T02:36:46.370Z,18.6
2018-09-19T02:37:47.724Z,18.6
2018-09-19T02:38:49.084Z,18.7
2018-09-19T02:39:50.455Z,18.6
2018-09-19T02:40:51.811Z,18.6
2018-09-19T02:41:53.169Z,18.7
2018-09-19T02:42:54.527Z,18.6
2018-09-19T02:43:55.885Z,18.7
2018-09-19T02:44:57.254Z,18.6
2018-09-19T02:45:58.613Z,18.6
2018-09-19T02:46:59.973Z,18.6
2018-09-19T02:48:01.330Z,18.6
2018-09-19T02:49:02.683Z,18.5
2018-09-19T02:50:04.057Z,18.5
2018-09-19T02:51:05.419Z,18.5
2018-09-19T02:52:06.771Z,18.6
2018-09-19T02:53:08.127Z,18.6
2018-09-19T02:54:09.494Z,18.5
2018-09-19T02:55:10.850Z,18.6
2018-09-19T02:56:12.214Z,18.5
2018-09-19T02:57:13.573Z,18.6
2018-09-19T02:58:14.923Z,18.4
2018-09-19T02:59:16.299Z,18.5
2018-09-19T03:00:17.646Z,18.5
2018-09-19T03:01:19.015Z,18.4
2018-09-19T03:02:20.368Z,18.5
2018-09-19T03:03:21.744Z,18.5
2018-09-19T03:04:23.102Z,18.4
2018-09-19T03:05:24.471Z,18.5
2018-09-19T03:06:25.825Z,18.4
2018-09-19T03:07:27.180Z,18.4
2018-09-19T03:08:28.557Z,18.4
2018-09-19T03:09:29.904Z,18.3
2018-09-19T03:10:31.264Z,18.3
2018-09-19T03:11:32.625Z,18.3
2018-09-19T03:12:33.990Z,18.3
2018-09-19T03:13:35.345Z,18.3
2018-09-19T03:14:36.706Z,18.4
2018-09-19T03:15:38.063Z,18.3
2018-09-19T03:16:39.427Z,18.3
2018-09-19T03:17:40.903Z,18.2
2018-09-19T03:18:42.112Z,18.2
2018-09-19T03:19:43.479Z,18.2
2018-09-19T03:20:44.838Z,18.3
2018-09-19T03:21:46.189Z,18.3
2018-09-19T03:22:47.548Z,18.2
2018-09-19T03:23:48.921Z,18.3
2018-09-19T03:24:50.389Z,18.3
2018-09-19T03:25:51.758Z,18.3
2018-09-19T03:26:53.133Z,18.2
2018-09-19T03:27:54.483Z,18.2
2018-09-19T03:28:55.848Z,18.3
2018-09-19T03:29:57.205Z,18.2
2018-09-19T03:30:58.564Z,18.3
2018-09-19T03:31:59.922Z,18.3
2018-09-19T03:33:01.281Z,18.2
2018-09-19T03:34:02.649Z,18.2
2018-09-19T03:35:04.020Z,18.3
2018-09-19T03:36:05.379Z,18.2
2018-09-19T03:37:06.728Z,18.2
2018-09-19T03:38:08.099Z,18.2
2018-09-19T03:39:09.453Z,18.2
2018-09-19T03:40:10.821Z,18.2
2018-09-19T03:41:12.168Z,18.2
2018-09-19T03:42:53.033Z,18.2
2018-09-19T03:43:54.386Z,18.2
2018-09-19T03:45:15.836Z,18.3
2018-09-19T03:46:17.200Z,18.3
2018-09-19T03:47:38.674Z,18.3
2018-09-19T03:48:40.045Z,18.3
2018-09-19T03:50:01.537Z,18.3
2018-09-19T03:51:02.905Z,18.3
2018-09-19T03:52:24.380Z,18.3
2018-09-19T03:53:25.741Z,18.3
2018-09-19T03:54:27.104Z,18.1
2018-09-19T03:55:28.519Z,18.2
2018-09-19T03:56:29.775Z,18.2
2018-09-19T03:57:31.130Z,18.3
2018-09-19T03:58:32.495Z,18.4
2018-09-19T03:59:33.883Z,18.4
2018-09-19T04:00:35.228Z,18.4
2018-09-19T04:01:36.589Z,18.3
2018-09-19T04:02:37.949Z,18.3
2018-09-19T04:03:39.315Z,18.4
2018-09-19T04:04:40.680Z,18.3
2018-09-19T04:05:42.038Z,18.3
2018-09-19T04:06:43.395Z,18.4
2018-09-19T04:07:44.754Z,18.3
2018-09-19T04:08:46.116Z,18.2
2018-09-19T04:09:47.514Z,18.2
2018-09-19T04:10:48.838Z,18.2
2018-09-19T04:11:50.199Z,18.2
2018-09-19T04:12:51.555Z,18.1
2018-09-19T04:13:52.922Z,18.1
2018-09-19T04:14:54.276Z,18.1
2018-09-19T04:15:55.634Z,18.1
2018-09-19T04:16:56.984Z,18.1
2018-09-19T04:17:58.420Z,18.0
2018-09-19T04:18:59.719Z,18.0
2018-09-19T04:20:01.071Z,18.1
2018-09-19T04:21:02.426Z,18.0
2018-09-19T04:22:03.780Z,18.0
2018-09-19T04:23:05.148Z,18.0
2018-09-19T04:24:06.501Z,18.0
2018-09-19T04:25:07.858Z,17.9
2018-09-19T04:26:09.210Z,17.9
2018-09-19T04:27:10.577Z,17.9
2018-09-19T04:28:11.958Z,18.0
2018-09-19T04:29:13.320Z,18.1
2018-09-19T04:30:14.676Z,18.2
2018-09-19T04:31:16.041Z,18.3
2018-09-19T04:32:17.464Z,18.4
2018-09-19T04:33:18.708Z,18.3
2018-09-19T04:34:20.080Z,18.4
2018-09-19T04:35:21.440Z,18.4
2018-09-19T04:36:22.799Z,18.2
2018-09-19T04:37:24.164Z,18.3
2018-09-19T04:38:25.520Z,18.3
2018-09-19T04:39:26.887Z,18.2
2018-09-19T04:40:28.246Z,18.2
2018-09-19T04:41:29.616Z,18.1
2018-09-19T04:42:30.969Z,18.1
2018-09-19T04:43:32.348Z,18.1
2018-09-19T04:44:33.697Z,18.0
2018-09-19T04:45:35.062Z,18.0
2018-09-19T04:46:36.428Z,18.0
2018-09-19T04:47:37.779Z,17.9
2018-09-19T04:48:39.140Z,17.9
2018-09-19T04:49:40.495Z,18.0
2018-09-19T04:50:41.864Z,17.9
2018-09-19T04:51:43.257Z,17.9
2018-09-19T04:52:44.580Z,17.9
2018-09-19T04:53:45.943Z,17.8
2018-09-19T04:54:47.315Z,17.8
2018-09-19T04:55:48.679Z,17.8
2018-09-19T04:56:50.825Z,17.8
2018-09-19T04:57:52.196Z,17.8
2018-09-19T04:58:53.563Z,17.8
2018-09-19T04:59:54.916Z,17.9
2018-09-19T05:00:56.275Z,17.9
2018-09-19T05:01:57.643Z,18.0
2018-09-19T05:02:59.001Z,18.1
2018-09-19T05:04:00.360Z,18.2
2018-09-19T05:05:01.730Z,18.3
2018-09-19T05:06:03.084Z,18.4
2018-09-19T05:07:04.445Z,18.4
2018-09-19T05:08:05.812Z,18.3
2018-09-19T05:09:07.173Z,18.4
2018-09-19T05:10:08.550Z,18.3
2018-09-19T05:11:09.967Z,18.3
2018-09-19T05:12:11.289Z,18.2
2018-09-19T05:13:12.629Z,18.3
2018-09-19T05:14:13.988Z,18.1
2018-09-19T05:15:15.351Z,18.1
2018-09-19T05:16:16.716Z,18.1
2018-09-19T05:17:18.085Z,18.1
2018-09-19T05:18:19.442Z,18.0
2018-09-19T05:19:20.808Z,17.9
2018-09-19T05:20:22.171Z,17.9
2018-09-19T05:21:23.530Z,17.8
2018-09-19T05:22:24.890Z,17.8
2018-09-19T05:23:26.270Z,17.8
2018-09-19T05:24:27.633Z,17.7
2018-09-19T05:25:28.990Z,17.8
2018-09-19T05:26:30.359Z,17.6
2018-09-19T05:27:31.714Z,17.7
2018-09-19T05:28:33.084Z,17.7
2018-09-19T05:29:34.446Z,17.7
2018-09-19T05:30:35.803Z,17.7
2018-09-19T05:31:37.201Z,17.7
2018-09-19T05:32:38.544Z,17.7
2018-09-19T05:33:39.910Z,17.7
2018-09-19T05:34:41.284Z,17.7
2018-09-19T05:35:42.641Z,17.7
2018-09-19T05:36:44.004Z,17.7
2018-09-19T05:37:45.372Z,17.8
2018-09-19T05:38:46.746Z,17.7
2018-09-19T05:39:48.108Z,17.8
2018-09-19T05:40:49.465Z,17.7
2018-09-19T05:41:50.836Z,17.8
2018-09-19T05:42:52.195Z,17.8
2018-09-19T05:43:53.564Z,17.7
2018-09-19T05:44:54.915Z,17.7
2018-09-19T05:45:56.293Z,17.8
2018-09-19T05:46:57.653Z,17.7
2018-09-19T05:47:59.038Z,17.8
2018-09-19T05:49:00.387Z,17.7
2018-09-19T05:50:01.752Z,17.7
2018-09-19T05:51:03.119Z,17.7
2018-09-19T05:52:04.486Z,17.7
2018-09-19T05:53:05.859Z,17.8
2018-09-19T05:54:07.214Z,17.7
2018-09-19T05:55:08.572Z,17.8
2018-09-19T05:56:09.937Z,17.8
2018-09-19T05:57:11.310Z,17.8
2018-09-19T05:58:12.676Z,17.8
2018-09-19T05:59:14.045Z,17.8
2018-09-19T06:00:15.416Z,17.8
2018-09-19T06:01:16.781Z,17.8
2018-09-19T06:02:18.136Z,17.7
2018-09-19T06:03:19.536Z,17.8
2018-09-19T06:04:20.911Z,17.7
2018-09-19T06:05:22.275Z,17.8
2018-09-19T06:06:23.627Z,17.7
2018-09-19T06:07:24.997Z,17.8
2018-09-19T06:08:26.365Z,17.8
2018-09-19T06:09:27.724Z,17.8
2018-09-19T06:10:29.077Z,17.8
2018-09-19T06:11:30.435Z,17.8
2018-09-19T06:12:31.809Z,17.8
2018-09-19T06:13:33.176Z,17.7
2018-09-19T06:14:34.539Z,17.8
2018-09-19T06:15:35.899Z,17.7
2018-09-19T06:16:37.273Z,17.8
2018-09-19T06:17:38.624Z,17.8
2018-09-19T06:18:39.992Z,17.8
2018-09-19T06:19:41.359Z,17.8
2018-09-19T06:20:42.716Z,17.9
2018-09-19T06:21:44.084Z,17.9
2018-09-19T06:22:45.441Z,17.9
2018-09-19T06:23:46.816Z,17.9
2018-09-19T06:24:48.175Z,17.9
2018-09-19T06:25:49.535Z,18.0
2018-09-19T06:26:50.922Z,17.9
2018-09-19T06:27:52.257Z,18.0
2018-09-19T06:28:53.630Z,18.0
2018-09-19T06:29:54.990Z,18.0
2018-09-19T06:30:56.342Z,18.0
2018-09-19T06:31:57.708Z,18.1
2018-09-19T06:32:59.102Z,18.1
2018-09-19T06:34:00.399Z,18.1
2018-09-19T06:35:01.782Z,18.1
2018-09-19T06:36:03.142Z,18.1
2018-09-19T06:37:04.519Z,18.1
2018-09-19T06:38:05.876Z,18.1
2018-09-19T06:39:07.237Z,18.0
2018-09-19T06:40:08.681Z,18.1
2018-09-19T06:41:09.932Z,18.2
2018-09-19T06:42:11.305Z,18.3
2018-09-19T06:43:12.665Z,18.3
2018-09-19T06:44:14.028Z,18.3
2018-09-19T06:45:15.395Z,18.6
2018-09-19T06:46:16.760Z,18.7
2018-09-19T06:47:18.127Z,19.0
2018-09-19T06:48:19.488Z,19.1
2018-09-19T06:49:20.861Z,19.2
2018-09-19T06:50:22.228Z,19.4
2018-09-19T06:51:23.591Z,19.6
2018-09-19T06:52:24.981Z,19.8
2018-09-19T06:53:26.337Z,20.0
2018-09-19T06:54:27.693Z,20.1
2018-09-19T06:55:29.063Z,20.2
2018-09-19T06:56:30.446Z,20.4
2018-09-19T06:57:31.805Z,20.5
2018-09-19T06:58:33.173Z,20.6
2018-09-19T06:59:38.034Z,20.9
2018-09-19T07:00:39.350Z,21.0
2018-09-19T07:01:40.722Z,21.1
2018-09-19T07:02:42.086Z,21.2
2018-09-19T07:03:43.455Z,21.1
2018-09-19T07:04:44.829Z,21.1
2018-09-19T07:05:46.254Z,21.0
2018-09-19T07:06:47.595Z,21.3
2018-09-19T07:07:48.957Z,21.5
2018-09-19T07:08:50.340Z,21.6
2018-09-19T07:09:51.712Z,21.8
2018-09-19T07:10:53.082Z,21.8
2018-09-19T07:11:54.445Z,21.9
2018-09-19T07:12:55.822Z,22.1
2018-09-19T07:13:57.208Z,22.1
2018-09-19T07:14:58.578Z,22.3
2018-09-19T07:15:59.957Z,22.3
2018-09-19T07:17:01.346Z,22.0
2018-09-19T07:18:02.711Z,21.9
2018-09-19T07:19:04.176Z,21.7
2018-09-19T07:20:05.417Z,21.5
2018-09-19T07:21:06.794Z,21.3
2018-09-19T07:22:08.157Z,21.3
2018-09-19T07:23:09.534Z,21.3
2018-09-19T07:24:10.913Z,21.3
2018-09-19T07:25:12.340Z,21.3
2018-09-19T07:26:13.650Z,21.3
2018-09-19T07:27:15.023Z,21.2
2018-09-19T07:28:16.380Z,21.1
2018-09-19T07:29:17.751Z,21.2
2018-09-19T07:30:19.131Z,21.4
2018-09-19T07:31:20.506Z,21.4
2018-09-19T07:32:21.867Z,21.4
2018-09-19T07:33:23.251Z,21.4
2018-09-19T07:34:24.627Z,21.4
2018-09-19T07:35:25.988Z,21.4
2018-09-19T07:36:27.347Z,21.4
2018-09-19T07:37:28.723Z,21.5
2018-09-19T07:38:30.097Z,21.5
2018-09-19T07:39:31.485Z,21.6
2018-09-19T07:40:32.852Z,21.6
2018-09-19T07:41:34.220Z,21.7
2018-09-19T07:42:35.601Z,21.8
2018-09-19T07:43:36.970Z,21.8
2018-09-19T07:44:38.341Z,21.9
2018-09-19T07:45:39.717Z,22.1
2018-09-19T07:46:41.125Z,22.2
2018-09-19T07:47:42.471Z,22.4
2018-09-19T07:48:43.855Z,22.4
2018-09-19T07:49:45.219Z,22.4
2018-09-19T07:50:46.581Z,22.5
2018-09-19T07:51:47.956Z,22.7
2018-09-19T07:52:49.342Z,22.8
2018-09-19T07:53:50.713Z,22.9
2018-09-19T07:54:52.072Z,23.1
2018-09-19T07:55:53.457Z,23.2
2018-09-19T07:56:54.826Z,23.3
2018-09-19T07:57:56.206Z,23.4
2018-09-19T07:58:57.575Z,23.6
2018-09-19T07:59:58.951Z,23.8
2018-09-19T08:01:00.380Z,24.0
2018-09-19T08:02:01.685Z,24.1
2018-09-19T08:03:03.101Z,24.1
2018-09-19T08:04:04.473Z,24.1
2018-09-19T08:05:05.862Z,24.0
2018-09-19T08:06:07.222Z,23.9
2018-09-19T08:07:08.597Z,24.0
2018-09-19T08:08:09.965Z,23.9
2018-09-19T08:09:11.457Z,23.9
2018-09-19T08:10:12.723Z,24.0
2018-09-19T08:11:14.119Z,24.0
2018-09-19T08:12:15.481Z,24.1
2018-09-19T08:13:16.855Z,24.3
2018-09-19T08:14:18.230Z,24.4
2018-09-19T08:15:19.593Z,24.4
2018-09-19T08:16:20.982Z,24.4
2018-09-19T08:17:22.357Z,24.4
2018-09-19T08:18:23.736Z,24.5
2018-09-19T08:19:25.107Z,24.6
2018-09-19T08:20:26.483Z,24.4
2018-09-19T08:21:27.851Z,24.2
2018-09-19T08:22:29.256Z,24.2
2018-09-19T08:23:30.602Z,24.0
2018-09-19T08:24:31.977Z,23.9
2018-09-19T08:25:33.358Z,23.9
2018-09-19T08:26:34.739Z,24.0
2018-09-19T08:27:36.154Z,24.1
2018-09-19T08:28:37.527Z,24.2
2018-09-19T08:29:38.902Z,24.2
2018-09-19T08:30:40.283Z,24.3
2018-09-19T08:31:41.659Z,24.4
2018-09-19T08:32:43.041Z,24.4
2018-09-19T08:33:44.422Z,24.4
2018-09-19T08:34:45.787Z,24.4
2018-09-19T08:35:47.173Z,24.3
2018-09-19T08:36:48.547Z,24.1
2018-09-19T08:37:49.926Z,24.1
2018-09-19T08:38:52.245Z,24.0
2018-09-19T08:39:53.633Z,24.0
2018-09-19T08:40:55.007Z,24.1
2018-09-19T08:41:56.381Z,24.1
2018-09-19T08:42:57.758Z,24.1
2018-09-19T08:43:59.142Z,24.2
2018-09-19T08:45:00.514Z,24.3
2018-09-19T08:46:01.887Z,24.4
2018-09-19T08:47:03.269Z,24.4
2018-09-19T08:48:04.645Z,24.6
2018-09-19T08:49:06.031Z,24.7
2018-09-19T08:50:07.402Z,24.8
2018-09-19T08:51:08.771Z,24.9
2018-09-19T08:52:10.155Z,24.9
2018-09-19T08:53:11.558Z,25.0
2018-09-19T08:54:12.931Z,25.0
2018-09-19T08:55:14.291Z,25.0
2018-09-19T08:56:15.717Z,25.3
2018-09-19T08:57:17.042Z,25.4
2018-09-19T08:58:18.426Z,25.4
2018-09-19T08:59:19.843Z,25.5
2018-09-19T09:00:21.211Z,25.7
2018-09-19T09:01:22.579Z,25.6
2018-09-19T09:02:23.956Z,25.6
2018-09-19T09:03:25.336Z,25.6
2018-09-19T09:04:26.715Z,25.5
2018-09-19T09:05:28.162Z,25.6
2018-09-19T09:06:29.432Z,25.8
2018-09-19T09:07:30.812Z,25.8
2018-09-19T09:08:32.182Z,25.9
2018-09-19T09:09:33.557Z,25.9
2018-09-19T09:10:34.933Z,25.9
2018-09-19T09:11:36.311Z,26.0
2018-09-19T09:12:37.715Z,26.1
2018-09-19T09:13:39.070Z,25.9
2018-09-19T09:14:40.452Z,25.9
2018-09-19T09:15:41.817Z,25.9
2018-09-19T09:16:43.198Z,25.8
2018-09-19T09:17:44.586Z,25.9
2018-09-19T09:18:45.965Z,26.1
2018-09-19T09:19:47.392Z,26.2
2018-09-19T09:20:48.752Z,26.3
2018-09-19T09:21:50.125Z,26.5
2018-09-19T09:22:51.501Z,26.5
2018-09-19T09:23:52.877Z,26.6
2018-09-19T09:24:54.269Z,26.6
2018-09-19T09:25:55.650Z,26.7
2018-09-19T09:26:57.055Z,26.9
2018-09-19T09:27:58.402Z,26.8
2018-09-19T09:28:59.805Z,26.7
2018-09-19T09:30:01.186Z,26.6
2018-09-19T09:31:02.574Z,26.6
2018-09-19T09:32:03.959Z,26.7
2018-09-19T09:33:05.337Z,26.7
2018-09-19T09:34:06.778Z,26.6
2018-09-19T09:35:08.057Z,26.7
2018-09-19T09:36:09.437Z,26.7
2018-09-19T09:37:10.817Z,26.7
2018-09-19T09:38:12.186Z,26.9
2018-09-19T09:39:13.565Z,27.0
2018-09-19T09:40:14.986Z,27.0
2018-09-19T09:41:16.332Z,27.0
2018-09-19T09:42:17.716Z,27.1
2018-09-19T09:43:58.565Z,26.9
2018-09-19T09:44:59.949Z,26.8
2018-09-19T09:46:01.395Z,26.8
2018-09-19T09:47:02.663Z,26.8
2018-09-19T09:48:04.038Z,26.9
2018-09-19T09:49:05.418Z,27.0
2018-09-19T09:50:06.793Z,27.1
2018-09-19T09:51:08.188Z,27.1
2018-09-19T09:52:09.566Z,27.2
2018-09-19T09:53:10.988Z,27.3
2018-09-19T09:54:12.322Z,27.3
2018-09-19T09:55:13.736Z,27.5
2018-09-19T09:56:15.136Z,27.5
2018-09-19T09:57:16.513Z,27.5
2018-09-19T09:58:17.893Z,27.4
2018-09-19T09:59:19.278Z,27.5
2018-09-19T10:00:20.667Z,27.6
2018-09-19T10:01:22.045Z,27.8
2018-09-19T10:02:23.419Z,27.9
2018-09-19T10:03:24.803Z,28.1
2018-09-19T10:04:26.192Z,28.2
2018-09-19T10:05:27.567Z,28.5
2018-09-19T10:06:28.986Z,28.6
2018-09-19T10:07:30.327Z,28.8
2018-09-19T10:08:31.706Z,28.9
2018-09-19T10:09:33.078Z,28.9
2018-09-19T10:10:34.465Z,29.0
2018-09-19T10:11:35.853Z,29.1
2018-09-19T10:12:37.239Z,29.2
2018-09-19T10:13:38.659Z,29.2
2018-09-19T10:14:39.972Z,29.4
2018-09-19T10:15:41.358Z,29.2
2018-09-19T10:16:42.751Z,29.3
2018-09-19T10:17:44.171Z,29.2
2018-09-19T10:18:45.632Z,29.2
2018-09-19T10:19:47.059Z,28.9
2018-09-19T10:20:48.439Z,28.8
2018-09-19T10:21:49.826Z,28.7
2018-09-19T10:22:51.223Z,28.8
2018-09-19T10:23:52.610Z,28.8
2018-09-19T10:24:53.991Z,28.9
2018-09-19T10:25:55.419Z,29.0
2018-09-19T10:26:56.788Z,29.2
2018-09-19T10:27:58.184Z,29.4
2018-09-19T10:28:59.636Z,29.5
2018-09-19T10:30:01.016Z,29.6
2018-09-19T10:31:02.399Z,29.8
2018-09-19T10:32:03.777Z,30.0
2018-09-19T10:33:05.158Z,30.0
2018-09-19T10:34:06.548Z,30.0
2018-09-19T10:35:07.934Z,30.1
2018-09-19T10:36:09.309Z,30.2
2018-09-19T10:37:10.695Z,29.9
2018-09-19T10:38:12.079Z,29.8
2018-09-19T10:39:13.465Z,29.6
2018-09-19T10:40:14.904Z,29.3
2018-09-19T10:41:16.282Z,29.1
2018-09-19T10:42:17.672Z,29.3
2018-09-19T10:43:19.056Z,29.4
2018-09-19T10:44:20.457Z,29.5
2018-09-19T10:45:21.832Z,29.6
2018-09-19T10:46:23.218Z,29.6
2018-09-19T10:47:24.607Z,29.8
2018-09-19T10:48:25.992Z,30.0
2018-09-19T10:49:27.393Z,30.2
2018-09-19T10:50:28.764Z,30.3
2018-09-19T10:51:30.148Z,30.3
2018-09-19T10:52:31.527Z,30.1
2018-09-19T10:53:32.908Z,30.0
2018-09-19T10:54:34.298Z,30.0
2018-09-19T10:55:35.679Z,30.1
2018-09-19T10:56:37.064Z,30.1
2018-09-19T10:57:38.449Z,30.0
2018-09-19T10:58:39.817Z,29.9
2018-09-19T10:59:41.207Z,29.8
2018-09-19T11:00:42.579Z,29.7
2018-09-19T11:01:43.968Z,29.7
2018-09-19T11:02:45.359Z,29.9
2018-09-19T11:03:46.767Z,29.9
2018-09-19T11:04:48.118Z,30.1
2018-09-19T11:05:49.504Z,30.2
2018-09-19T11:06:50.908Z,30.4
2018-09-19T11:07:52.288Z,30.5
2018-09-19T11:08:53.691Z,30.6
2018-09-19T11:09:55.079Z,30.6
2018-09-19T11:10:56.446Z,30.6
2018-09-19T11:11:57.826Z,30.6
2018-09-19T11:12:59.216Z,30.5
2018-09-19T11:14:00.603Z,30.3
2018-09-19T11:15:01.973Z,30.1
2018-09-19T11:16:03.365Z,30.0
2018-09-19T11:17:04.820Z,29.9
2018-09-19T11:18:06.123Z,29.9
2018-09-19T11:19:07.501Z,30.1
2018-09-19T11:20:08.893Z,30.0
2018-09-19T11:21:10.277Z,30.2
2018-09-19T11:22:11.669Z,30.3
2018-09-19T11:23:13.062Z,30.4
2018-09-19T11:24:14.438Z,30.3
2018-09-19T11:25:15.826Z,30.4
2018-09-19T11:26:17.246Z,30.5
2018-09-19T11:27:18.601Z,30.7
2018-09-19T11:28:19.997Z,30.8
2018-09-19T11:29:21.389Z,30.6
2018-09-19T11:30:22.768Z,30.5
2018-09-19T11:31:24.153Z,30.5
2018-09-19T11:32:25.537Z,30.5
2018-09-19T11:33:26.920Z,30.5
2018-09-19T11:34:28.298Z,30.5
2018-09-19T11:35:29.703Z,30.5
2018-09-19T11:36:31.078Z,30.5
2018-09-19T11:37:32.461Z,30.5
2018-09-19T11:38:33.852Z,30.5
2018-09-19T11:39:35.234Z,30.5
2018-09-19T11:40:36.630Z,30.5
2018-09-19T11:41:38.008Z,30.4
2018-09-19T11:42:39.399Z,30.4
2018-09-19T11:43:40.788Z,30.5
2018-09-19T11:44:42.180Z,30.4
2018-09-19T11:45:43.567Z,30.4
2018-09-19T11:46:44.959Z,30.4
2018-09-19T11:47:46.384Z,30.4
2018-09-19T11:48:47.788Z,30.2
2018-09-19T11:49:49.329Z,30.2
2018-09-19T11:50:50.724Z,30.3
2018-09-19T11:51:52.128Z,30.3
2018-09-19T11:52:53.514Z,30.5
2018-09-19T11:53:54.889Z,30.5
2018-09-19T11:54:56.267Z,30.5
2018-09-19T11:55:57.657Z,30.5
2018-09-19T11:56:59.040Z,30.6
2018-09-19T11:58:00.431Z,30.6
2018-09-19T11:59:01.813Z,30.5
2018-09-19T12:00:03.195Z,30.6
2018-09-19T12:01:04.576Z,30.6
2018-09-19T12:02:06.002Z,30.7
2018-09-19T12:03:07.337Z,30.8
2018-09-19T12:04:08.723Z,30.8
2018-09-19T12:05:10.109Z,30.9
2018-09-19T12:06:11.489Z,31.0
2018-09-19T12:07:12.914Z,30.9
2018-09-19T12:08:14.255Z,30.9
2018-09-19T12:09:15.632Z,30.8
2018-09-19T12:10:17.023Z,30.7
2018-09-19T12:11:18.429Z,30.6
2018-09-19T12:12:19.804Z,30.8
2018-09-19T12:13:21.184Z,30.8
2018-09-19T12:14:22.569Z,30.9
2018-09-19T12:15:23.943Z,31.0
2018-09-19T12:16:25.323Z,31.0
2018-09-19T12:17:26.714Z,30.9
2018-09-19T12:18:28.092Z,30.9
2018-09-19T12:19:29.507Z,31.0
2018-09-19T12:20:30.871Z,30.9
2018-09-19T12:21:32.253Z,31.0
2018-09-19T12:22:33.642Z,31.1
2018-09-19T12:23:35.030Z,31.2
2018-09-19T12:24:36.413Z,31.2
2018-09-19T12:25:37.792Z,31.2
2018-09-19T12:26:39.251Z,31.1
2018-09-19T12:27:40.524Z,31.1
2018-09-19T12:28:41.909Z,31.2
2018-09-19T12:29:43.290Z,31.3
2018-09-19T12:30:44.703Z,31.4
2018-09-19T12:31:46.119Z,31.2
2018-09-19T12:32:47.498Z,31.2
2018-09-19T12:33:48.875Z,31.0
2018-09-19T12:34:50.260Z,31.0
2018-09-19T12:35:51.639Z,30.9
2018-09-19T12:36:53.021Z,30.8
2018-09-19T12:37:54.397Z,30.7
2018-09-19T12:38:55.798Z,30.7
2018-09-19T12:39:57.179Z,30.6
2018-09-19T12:40:58.562Z,30.6
2018-09-19T12:41:59.949Z,30.8
2018-09-19T12:43:01.328Z,30.8
2018-09-19T12:44:02.704Z,30.8
2018-09-19T12:45:04.084Z,30.7
2018-09-19T12:46:05.473Z,30.8
2018-09-19T12:47:06.853Z,30.8
2018-09-19T12:48:08.238Z,30.8
2018-09-19T12:49:09.654Z,31.0
2018-09-19T12:50:10.973Z,30.9
2018-09-19T12:51:12.360Z,30.9
2018-09-19T12:52:13.733Z,30.9
2018-09-19T12:53:15.806Z,30.9
2018-09-19T12:54:17.162Z,30.8
2018-09-19T12:55:18.557Z,30.8
2018-09-19T12:56:19.939Z,30.8
2018-09-19T12:57:21.322Z,30.8
2018-09-19T12:58:22.698Z,30.8
2018-09-19T12:59:24.091Z,30.9
2018-09-19T13:00:25.469Z,31.0
2018-09-19T13:01:26.848Z,31.1
2018-09-19T13:02:28.214Z,31.2
2018-09-19T13:03:29.604Z,31.1
2018-09-19T13:04:30.974Z,31.1
2018-09-19T13:05:32.368Z,31.2
2018-09-19T13:06:33.750Z,31.3
2018-09-19T13:07:35.123Z,31.2
2018-09-19T13:08:36.524Z,31.0
2018-09-19T13:09:37.889Z,30.9
2018-09-19T13:10:39.281Z,30.9
2018-09-19T13:11:40.676Z,31.0
2018-09-19T13:12:42.049Z,31.0
2018-09-19T13:13:43.422Z,31.1
2018-09-19T13:14:44.843Z,31.2
2018-09-19T13:15:46.269Z,31.2
2018-09-19T13:16:47.668Z,31.2
2018-09-19T13:17:49.045Z,31.2
2018-09-19T13:18:50.430Z,31.0
2018-09-19T13:19:51.818Z,30.9
2018-09-19T13:20:53.194Z,30.8
2018-09-19T13:21:54.569Z,30.7
2018-09-19T13:22:55.946Z,30.8
2018-09-19T13:23:57.343Z,30.9
2018-09-19T13:24:58.716Z,31.0
2018-09-19T13:26:00.104Z,31.0
2018-09-19T13:27:01.488Z,31.0
2018-09-19T13:28:02.861Z,31.1
2018-09-19T13:29:07.218Z,31.2
2018-09-19T13:30:08.613Z,31.3
2018-09-19T13:31:09.983Z,31.3
2018-09-19T13:32:11.369Z,31.5
2018-09-19T13:33:12.759Z,31.5
2018-09-19T13:34:14.129Z,31.5
2018-09-19T13:35:15.504Z,31.6
2018-09-19T13:36:16.881Z,31.6
2018-09-19T13:37:18.265Z,31.6
2018-09-19T13:38:19.680Z,31.5
2018-09-19T13:39:21.055Z,31.5